createdAt,value
2018-12-12T00:02:24.780Z,93.64
2018-12-12T00:04:53.010Z,93.75
2018-12-12T00:07:21.284Z,93.77
2018-12-12T00:09:49.494Z,93.73
2018-12-12T00:12:17.732Z,93.82
2018-12-12T00:14:45.943Z,93.74
2018-12-12T00:17:14.196Z,93.62
2018-12-12T00:19:42.417Z,94.09
2018-12-12T00:22:10.678Z,93.85
2018-12-12T00:24:38.893Z,93.96
2018-12-12T00:27:07.122Z,93.89
2018-12-12T00:29:35.344Z,94.06
2018-12-12T00:32:03.568Z,93.84
2018-12-12T00:34:31.813Z,93.79
2018-12-12T00:37:00.032Z,93.62
2018-12-12T00:39:28.353Z,93.91
2018-12-12T00:41:56.499Z,94.12
2018-12-12T00:44:24.748Z,94.09
2018-12-12T00:46:52.976Z,94.42
2018-12-12T00:49:21.225Z,94.31
2018-12-12T00:51:49.460Z,94.58
2018-12-12T00:54:17.700Z,94.90
2018-12-12T00:56:45.966Z,94.75
2018-12-12T00:59:14.201Z,94.68
2018-12-12T01:01:42.431Z,94.99
2018-12-12T01:04:10.687Z,95.11
2018-12-12T01:06:38.930Z,94.97
2018-12-12T01:09:07.311Z,95.04
2018-12-12T01:11:54.668Z,95.27
2018-12-12T01:14:22.935Z,95.29
2018-12-12T01:16:51.138Z,95.45
2018-12-12T01:19:38.801Z,95.85
2018-12-12T01:22:07.039Z,96.10
2018-12-12T01:24:35.278Z,95.68
2018-12-12T01:27:03.532Z,96.01
2018-12-12T01:29:31.825Z,96.02
2018-12-12T01:32:00.103Z,96.14
2018-12-12T01:34:28.361Z,96.65
2018-12-12T01:36:56.570Z,96.75
2018-12-12T01:39:24.808Z,96.60
2018-12-12T01:41:53.018Z,96.88
2018-12-12T01:44:21.246Z,96.73
2018-12-12T01:46:49.454Z,96.27
2018-12-12T01:49:17.708Z,96.39
2018-12-12T01:51:45.929Z,96.43
2018-12-12T01:54:14.162Z,96.36
2018-12-12T01:56:42.409Z,96.71
2018-12-12T01:59:10.637Z,96.69
2018-12-12T02:01:38.891Z,96.77
2018-12-12T02:04:07.312Z,96.70
2018-12-12T02:06:35.550Z,96.90
2018-12-12T02:09:03.798Z,96.96
2018-12-12T02:11:32.044Z,97.21
2018-12-12T02:14:00.293Z,97.50
2018-12-12T02:16:28.547Z,97.41
2018-12-12T02:18:56.756Z,97.31
2018-12-12T02:21:25.014Z,97.12
2018-12-12T02:23:53.250Z,97.27
2018-12-12T02:26:21.578Z,97.40
2018-12-12T02:28:49.806Z,97.34
2018-12-12T02:31:18.048Z,97.08
2018-12-12T02:33:46.264Z,96.98
2018-12-12T02:36:14.498Z,97.22
2018-12-12T02:38:42.775Z,96.92
2018-12-12T02:41:10.962Z,96.89
2018-12-12T02:43:39.180Z,97.00
2018-12-12T02:46:07.401Z,96.98
2018-12-12T02:48:35.612Z,96.97
2018-12-12T02:51:03.896Z,97.24
2018-12-12T02:53:32.090Z,96.99
2018-12-12T02:56:00.317Z,96.92
2018-12-12T02:58:28.549Z,96.97
2018-12-12T03:00:56.765Z,97.16
2018-12-12T03:03:25.041Z,96.92
2018-12-12T03:05:53.272Z,97.09
2018-12-12T03:08:21.516Z,96.87
2018-12-12T03:10:49.706Z,96.90
2018-12-12T03:13:17.935Z,96.87
2018-12-12T03:15:46.147Z,97.08
2018-12-12T03:18:14.351Z,96.96
2018-12-12T03:20:42.565Z,96.94
2018-12-12T03:23:10.820Z,97.02
2018-12-12T03:25:39.049Z,97.03
2018-12-12T03:28:07.273Z,96.95
2018-12-12T03:30:35.461Z,96.69
2018-12-12T03:33:03.701Z,96.98
2018-12-12T03:35:31.899Z,96.72
2018-12-12T03:38:00.127Z,96.63
2018-12-12T03:40:28.396Z,96.41
2018-12-12T03:42:56.566Z,96.52
2018-12-12T03:45:24.766Z,96.56
2018-12-12T03:47:52.981Z,96.52
2018-12-12T03:50:21.202Z,96.46
2018-12-12T03:52:49.417Z,96.33
2018-12-12T03:55:17.628Z,96.27
2018-12-12T03:57:45.820Z,95.92
2018-12-12T04:00:14.032Z,95.88
2018-12-12T04:02:42.257Z,95.54
2018-12-12T04:05:10.480Z,95.30
2018-12-12T04:07:38.698Z,95.11
2018-12-12T04:10:07.138Z,94.89
2018-12-12T04:12:35.353Z,94.86
2018-12-12T04:15:03.575Z,94.70
2018-12-12T04:17:31.781Z,94.48
2018-12-12T04:20:00.024Z,94.42
2018-12-12T04:22:28.276Z,94.36
2018-12-12T04:24:56.539Z,94.27
2018-12-12T04:27:24.729Z,94.49
2018-12-12T04:29:52.939Z,94.38
2018-12-12T04:32:21.156Z,94.36
2018-12-12T04:34:49.369Z,94.29
2018-12-12T04:37:17.584Z,94.05
2018-12-12T04:39:45.829Z,93.72
2018-12-12T04:42:14.049Z,93.61
2018-12-12T04:44:42.283Z,93.40
2018-12-12T04:47:10.507Z,93.28
2018-12-12T04:49:38.733Z,93.08
2018-12-12T04:52:06.956Z,92.94
2018-12-12T04:54:35.172Z,92.78
2018-12-12T04:57:03.405Z,92.74
2018-12-12T04:59:31.609Z,92.88
2018-12-12T05:01:59.796Z,92.77
2018-12-12T05:04:28.023Z,92.50
2018-12-12T05:06:56.265Z,92.42
2018-12-12T05:09:24.491Z,92.39
2018-12-12T05:11:52.717Z,92.47
2018-12-12T05:14:20.971Z,91.33
2018-12-12T05:16:56.489Z,91.04
2018-12-12T05:21:58.908Z,91.20
2018-12-12T05:24:27.188Z,91.12
2018-12-12T05:26:55.407Z,91.16
2018-12-12T05:29:23.630Z,91.07
2018-12-12T05:31:51.860Z,91.11
2018-12-12T05:34:20.082Z,90.62
2018-12-12T05:36:56.608Z,90.95
2018-12-12T05:39:25.496Z,90.76
2018-12-12T05:41:53.846Z,90.79
2018-12-12T05:44:23.181Z,90.91
2018-12-12T05:46:50.283Z,91.14
2018-12-12T05:49:18.508Z,91.43
2018-12-12T05:51:46.734Z,91.46
2018-12-12T05:54:14.975Z,91.59
2018-12-12T05:56:43.265Z,91.60
2018-12-12T05:59:11.461Z,91.44
2018-12-12T06:01:39.693Z,91.46
2018-12-12T06:04:07.906Z,91.51
2018-12-12T06:06:36.155Z,91.59
2018-12-12T06:09:06.464Z,91.75
2018-12-12T06:11:34.691Z,91.93
2018-12-12T06:14:02.939Z,91.96
2018-12-12T06:16:31.203Z,92.06
2018-12-12T06:18:59.420Z,92.46
2018-12-12T06:21:27.686Z,92.89
2018-12-12T06:23:58.931Z,93.00
2018-12-12T06:26:27.176Z,92.96
2018-12-12T06:28:55.421Z,92.43
2018-12-12T06:31:23.660Z,92.34
2018-12-12T06:33:51.895Z,92.52
2018-12-12T06:36:20.550Z,92.59
2018-12-12T06:38:53.900Z,92.80
2018-12-12T06:41:25.421Z,93.06
2018-12-12T06:43:53.636Z,93.08
2018-12-12T06:46:21.879Z,93.01
2018-12-12T06:48:50.113Z,93.01
2018-12-12T06:51:18.327Z,93.19
2018-12-12T06:53:46.553Z,93.48
2018-12-12T06:56:14.781Z,93.62
2018-12-12T06:58:43.028Z,93.88
2018-12-12T07:01:11.287Z,93.88
2018-12-12T07:03:39.537Z,93.83
2018-12-12T07:06:07.761Z,93.85
2018-12-12T07:08:36.017Z,93.46
2018-12-12T07:11:04.316Z,93.41
2018-12-12T07:13:35.757Z,93.22
2018-12-12T07:16:00.688Z,92.78
2018-12-12T07:18:28.920Z,92.64
2018-12-12T07:20:57.139Z,92.68
2018-12-12T07:23:25.397Z,92.77
2018-12-12T07:25:53.607Z,93.00
2018-12-12T07:28:21.848Z,93.16
2018-12-12T07:30:50.051Z,93.30
2018-12-12T07:33:18.287Z,93.42
2018-12-12T07:35:46.505Z,93.20
2018-12-12T07:38:14.737Z,93.41
2018-12-12T07:40:42.963Z,93.50
2018-12-12T07:43:11.223Z,93.25
2018-12-12T07:45:39.453Z,93.16
2018-12-12T07:48:27.112Z,93.37
2018-12-12T07:50:55.379Z,93.28
2018-12-12T07:53:23.611Z,93.25
2018-12-12T07:55:51.817Z,93.18
2018-12-12T07:58:20.082Z,93.03
2018-12-12T08:00:48.427Z,93.15
2018-12-12T08:03:16.660Z,93.32
2018-12-12T08:05:44.891Z,93.50
2018-12-12T08:08:13.137Z,94.00
2018-12-12T08:10:41.384Z,94.13
2018-12-12T08:13:09.589Z,93.86
2018-12-12T08:15:37.836Z,94.63
2018-12-12T08:18:06.062Z,95.05
2018-12-12T08:20:34.345Z,95.59
2018-12-12T08:23:02.602Z,95.76
2018-12-12T08:25:30.848Z,95.66
2018-12-12T08:27:59.103Z,96.00
2018-12-12T08:30:27.424Z,95.95
2018-12-12T08:32:55.624Z,96.04
2018-12-12T08:35:23.828Z,95.73
2018-12-12T08:37:52.031Z,95.73
2018-12-12T08:40:20.333Z,95.33
2018-12-12T08:42:48.548Z,95.26
2018-12-12T08:45:16.865Z,95.35
2018-12-12T08:47:45.088Z,95.32
2018-12-12T08:50:15.557Z,95.38
2018-12-12T08:52:43.813Z,95.11
2018-12-12T08:55:17.609Z,94.92
2018-12-12T08:57:40.301Z,95.20
2018-12-12T09:00:08.574Z,94.99
2018-12-12T09:02:36.788Z,94.65
2018-12-12T09:05:05.373Z,95.02
2018-12-12T09:07:33.577Z,95.21
2018-12-12T09:10:01.781Z,94.81
2018-12-12T09:12:30.002Z,94.96
2018-12-12T09:14:58.225Z,95.11
2018-12-12T09:17:26.481Z,94.96
2018-12-12T09:19:54.706Z,94.85
2018-12-12T09:22:22.981Z,94.85
2018-12-12T09:24:51.371Z,94.94
2018-12-12T09:27:19.553Z,94.65
2018-12-12T09:29:47.761Z,94.68
2018-12-12T09:32:15.975Z,95.00
2018-12-12T09:34:44.208Z,94.73
2018-12-12T09:37:12.509Z,94.91
2018-12-12T09:39:40.709Z,94.67
2018-12-12T09:42:08.941Z,94.63
2018-12-12T09:44:37.196Z,94.21
2018-12-12T09:47:05.617Z,94.16
2018-12-12T09:49:33.819Z,93.90
2018-12-12T09:52:02.086Z,93.87
2018-12-12T09:54:30.311Z,93.94
2018-12-12T09:56:58.537Z,94.08
2018-12-12T09:59:26.851Z,93.96
2018-12-12T10:01:55.151Z,94.15
2018-12-12T10:04:23.362Z,94.04
2018-12-12T10:06:51.694Z,93.75
2018-12-12T10:09:19.962Z,93.61
2018-12-12T10:11:48.155Z,93.41
2018-12-12T10:14:16.375Z,93.37
2018-12-12T10:16:44.608Z,92.94
2018-12-12T10:19:12.852Z,92.79
2018-12-12T10:21:41.110Z,92.65
2018-12-12T10:24:09.333Z,92.85
2018-12-12T10:26:37.569Z,92.69
2018-12-12T10:29:05.821Z,92.99
2018-12-12T10:31:34.030Z,93.00
2018-12-12T10:34:02.259Z,93.06
2018-12-12T10:36:30.498Z,93.11
2018-12-12T10:38:58.714Z,92.82
2018-12-12T10:41:26.925Z,92.54
2018-12-12T10:43:55.178Z,92.90
2018-12-12T10:46:23.379Z,92.22
2018-12-12T10:48:52.194Z,91.74
2018-12-12T10:51:20.418Z,91.78
2018-12-12T10:53:48.654Z,91.36
2018-12-12T10:56:16.888Z,91.31
2018-12-12T10:58:45.142Z,91.06
2018-12-12T11:01:32.462Z,90.97
2018-12-12T11:04:00.761Z,90.94
2018-12-12T11:06:28.991Z,90.33
2018-12-12T11:09:16.618Z,90.34
2018-12-12T11:11:44.878Z,90.12
2018-12-12T11:14:13.108Z,90.54
2018-12-12T11:16:41.478Z,89.55
2018-12-12T11:19:09.726Z,89.31
2018-12-12T11:21:37.948Z,89.23
2018-12-12T11:24:06.205Z,88.67
2018-12-12T11:26:34.449Z,88.39
2018-12-12T11:29:02.694Z,88.70
2018-12-12T11:31:30.909Z,88.07
2018-12-12T11:33:59.147Z,88.05
2018-12-12T11:36:27.348Z,88.00
2018-12-12T11:38:55.571Z,88.27
2018-12-12T11:41:23.777Z,88.09
2018-12-12T11:43:52.029Z,88.19
2018-12-12T11:46:20.275Z,87.78
2018-12-12T11:48:48.502Z,87.98
2018-12-12T11:51:16.757Z,88.23
2018-12-12T11:53:44.993Z,87.57
2018-12-12T11:56:13.246Z,87.20
2018-12-12T11:58:41.487Z,86.72
2018-12-12T12:01:09.746Z,87.03
2018-12-12T12:03:37.952Z,86.29
2018-12-12T12:06:06.167Z,86.43
2018-12-12T12:08:34.393Z,86.30
2018-12-12T12:11:02.652Z,86.68
2018-12-12T12:13:30.978Z,87.12
2018-12-12T12:15:59.130Z,87.12
2018-12-12T12:18:27.358Z,86.64
2018-12-12T12:20:55.599Z,86.67
2018-12-12T12:23:23.795Z,86.05
2018-12-12T12:25:52.044Z,86.95
2018-12-12T12:28:42.287Z,85.83
2018-12-12T12:31:10.541Z,84.66
2018-12-12T12:33:38.764Z,85.15
2018-12-12T12:36:06.995Z,84.79
2018-12-12T12:38:35.199Z,83.46
2018-12-12T12:41:03.511Z,82.07
2018-12-12T12:43:31.717Z,81.66
2018-12-12T12:46:00.031Z,82.48
2018-12-12T12:48:28.237Z,82.37
2018-12-12T12:50:56.510Z,82.63
2018-12-12T12:53:24.724Z,82.99
2018-12-12T12:55:52.965Z,83.65
2018-12-12T12:58:21.180Z,83.50
2018-12-12T13:00:49.415Z,81.43
2018-12-12T13:03:17.621Z,83.33
2018-12-12T13:05:45.858Z,83.58
2018-12-12T13:08:14.109Z,82.91
2018-12-12T13:10:42.319Z,83.84
2018-12-12T13:13:10.680Z,84.01
2018-12-12T13:15:38.754Z,84.43
2018-12-12T13:18:06.999Z,84.84
2018-12-12T13:20:35.207Z,84.46
2018-12-12T13:23:03.530Z,84.71
2018-12-12T13:25:31.702Z,84.26
2018-12-12T13:27:59.937Z,84.63
2018-12-12T13:30:28.294Z,83.85
2018-12-12T13:32:56.544Z,83.96
2018-12-12T13:35:24.843Z,84.04
2018-12-12T13:37:53.094Z,83.92
2018-12-12T13:40:21.229Z,83.99
2018-12-12T13:42:49.519Z,83.91
2018-12-12T13:45:17.729Z,84.02
2018-12-12T13:47:45.968Z,84.22
2018-12-12T13:50:14.177Z,84.42
2018-12-12T13:52:42.412Z,84.58
2018-12-12T13:55:10.605Z,84.63
2018-12-12T13:57:38.832Z,84.70
2018-12-12T14:00:07.078Z,84.71
2018-12-12T14:02:35.345Z,84.85
2018-12-12T14:05:03.576Z,84.87
2018-12-12T14:07:31.825Z,85.17
2018-12-12T14:10:00.017Z,85.61
2018-12-12T14:12:28.246Z,85.66
2018-12-12T14:14:56.433Z,85.64
2018-12-12T14:17:24.657Z,85.70
2018-12-12T14:19:52.981Z,85.61
2018-12-12T14:22:21.181Z,85.66
2018-12-12T14:24:49.410Z,85.67
2018-12-12T14:27:17.626Z,85.75
2018-12-12T14:29:45.863Z,85.67
2018-12-12T14:32:14.132Z,85.69
2018-12-12T14:34:42.343Z,85.70
2018-12-12T14:37:10.578Z,85.26
2018-12-12T14:39:38.846Z,85.36
2018-12-12T14:42:07.049Z,85.73
2018-12-12T14:44:35.318Z,85.77
2018-12-12T14:47:03.549Z,85.71
2018-12-12T14:49:31.798Z,85.65
2018-12-12T14:51:59.996Z,85.94
2018-12-12T14:54:28.244Z,85.89
2018-12-12T14:56:56.489Z,86.42
2018-12-12T14:59:24.719Z,86.60
2018-12-12T15:01:52.993Z,86.64
2018-12-12T15:04:21.269Z,86.73
2018-12-12T15:06:49.718Z,86.89
2018-12-12T15:09:18.095Z,87.12
2018-12-12T15:11:46.932Z,87.01
2018-12-12T15:14:15.067Z,87.15
2018-12-12T15:16:43.405Z,87.22
2018-12-12T15:19:11.668Z,87.42
2018-12-12T15:21:39.961Z,87.11
2018-12-12T15:24:27.640Z,87.37
2018-12-12T15:26:55.917Z,87.21
2018-12-12T15:29:24.152Z,87.50
2018-12-12T15:31:52.373Z,87.38
2018-12-12T15:34:20.589Z,87.41
2018-12-12T15:36:48.827Z,87.44
2018-12-12T15:39:17.064Z,87.64
2018-12-12T15:41:45.308Z,87.85
2018-12-12T15:44:13.517Z,87.74
2018-12-12T15:46:41.756Z,87.93
2018-12-12T15:49:09.972Z,88.09
2018-12-12T15:51:38.284Z,87.98
2018-12-12T15:54:06.451Z,87.96
2018-12-12T15:56:34.731Z,87.69
2018-12-12T15:59:02.974Z,87.67
2018-12-12T16:01:31.247Z,87.46
2018-12-12T16:03:59.482Z,86.97
2018-12-12T16:06:27.734Z,86.84
2018-12-12T16:08:55.988Z,86.29
2018-12-12T16:11:24.209Z,86.12
2018-12-12T16:13:52.428Z,85.96
2018-12-12T16:16:20.651Z,85.83
2018-12-12T16:18:48.915Z,86.09
2018-12-12T16:21:17.173Z,86.21
2018-12-12T16:23:45.390Z,86.73
2018-12-12T16:26:13.660Z,86.69
2018-12-12T16:28:41.892Z,87.15
2018-12-12T16:31:10.114Z,87.49
2018-12-12T16:33:38.365Z,87.47
2018-12-12T16:36:06.592Z,87.39
2018-12-12T16:38:34.874Z,87.46
2018-12-12T16:41:03.040Z,87.29
2018-12-12T16:43:31.293Z,86.73
2018-12-12T16:45:59.565Z,86.50
2018-12-12T16:48:27.827Z,86.51
2018-12-12T16:50:56.071Z,86.23
2018-12-12T16:53:24.289Z,86.10
2018-12-12T16:55:52.568Z,86.16
2018-12-12T16:58:20.801Z,86.13
2018-12-12T17:00:49.071Z,85.93
2018-12-12T17:03:17.281Z,85.43
2018-12-12T17:05:45.553Z,85.55
2018-12-12T17:08:13.801Z,85.14
2018-12-12T17:10:42.002Z,84.65
2018-12-12T17:13:10.316Z,85.01
2018-12-12T17:15:38.529Z,84.77
2018-12-12T17:18:06.865Z,85.03
2018-12-12T17:20:35.017Z,85.33
2018-12-12T17:23:03.337Z,84.78
2018-12-12T17:25:31.781Z,85.12
2018-12-12T17:27:59.876Z,84.81
2018-12-12T17:30:28.091Z,84.93
2018-12-12T17:32:56.343Z,84.23
2018-12-12T17:35:24.635Z,84.21
2018-12-12T17:37:52.841Z,83.87
2018-12-12T17:40:21.045Z,84.04
2018-12-12T17:42:49.294Z,83.63
2018-12-12T17:45:17.500Z,83.28
2018-12-12T17:47:45.745Z,82.79
2018-12-12T17:50:13.945Z,82.80
2018-12-12T17:52:42.217Z,82.01
2018-12-12T17:55:10.448Z,81.71
2018-12-12T17:57:38.779Z,81.57
2018-12-12T18:00:07.001Z,80.94
2018-12-12T18:02:35.234Z,81.43
2018-12-12T18:05:03.459Z,79.36
2018-12-12T18:07:31.693Z,80.38
2018-12-12T18:09:59.983Z,80.36
2018-12-12T18:12:28.217Z,80.37
2018-12-12T18:14:56.462Z,78.85
2018-12-12T18:17:24.875Z,79.64
2018-12-12T18:19:53.055Z,80.62
2018-12-12T18:22:21.281Z,80.32
2018-12-12T18:24:49.514Z,80.64
2018-12-12T18:27:17.797Z,80.36
2018-12-12T18:29:46.111Z,80.69
2018-12-12T18:32:14.341Z,80.59
2018-12-12T18:34:42.567Z,81.27
2018-12-12T18:37:10.789Z,81.56
2018-12-12T18:39:39.018Z,81.80
2018-12-12T18:42:07.308Z,81.58
2018-12-12T18:44:35.535Z,81.42
2018-12-12T18:47:03.746Z,81.58
2018-12-12T18:49:31.983Z,81.72
2018-12-12T18:52:00.200Z,81.90
2018-12-12T18:54:28.434Z,82.08
2018-12-12T18:56:56.718Z,82.12
2018-12-12T18:59:24.952Z,82.28
2018-12-12T19:01:53.461Z,82.02
2018-12-12T19:04:21.707Z,82.42
2018-12-12T19:06:52.406Z,82.52
2018-12-12T19:12:13.847Z,82.72
2018-12-12T19:15:06.194Z,82.74
2018-12-12T19:20:28.029Z,82.28
2018-12-12T19:22:56.246Z,82.10
2018-12-12T19:25:24.532Z,82.70
2018-12-12T19:33:15.629Z,82.61
2018-12-12T19:35:43.879Z,82.52
2018-12-12T19:38:12.132Z,82.32
2018-12-12T19:40:40.363Z,82.60
2018-12-12T19:43:08.612Z,82.24
2018-12-12T19:45:36.902Z,82.81
2018-12-12T19:48:05.182Z,82.62
2018-12-12T19:50:33.434Z,82.43
2018-12-12T19:53:01.675Z,82.50
2018-12-12T19:55:30.193Z,82.65
2018-12-12T19:57:58.373Z,82.53
2018-12-12T20:00:26.623Z,81.68
2018-12-12T20:02:54.839Z,81.65
2018-12-12T20:05:23.066Z,81.38
2018-12-12T20:07:51.340Z,82.25
2018-12-12T20:10:19.656Z,82.05
2018-12-12T20:12:47.895Z,82.16
2018-12-12T20:15:35.268Z,82.13
2018-12-12T20:18:03.499Z,82.17
2018-12-12T20:20:31.722Z,81.80
2018-12-12T20:23:00.021Z,81.80
2018-12-12T20:25:28.274Z,82.09
2018-12-12T20:27:56.551Z,82.34
2018-12-12T20:30:24.908Z,82.88
2018-12-12T20:32:53.291Z,82.77
2018-12-12T20:35:21.537Z,82.77
2018-12-12T20:37:49.792Z,83.10
2018-12-12T20:40:18.122Z,83.13
2018-12-12T20:42:46.368Z,83.10
2018-12-12T20:45:14.596Z,83.37
2018-12-12T20:47:42.858Z,83.37
2018-12-12T20:50:11.072Z,83.23
2018-12-12T20:52:39.318Z,83.14
2018-12-12T20:55:07.570Z,83.51
2018-12-12T20:57:35.807Z,83.41
2018-12-12T21:00:04.017Z,83.45
2018-12-12T21:02:32.272Z,83.07
2018-12-12T21:05:00.531Z,83.23
2018-12-12T21:07:28.796Z,83.41
2018-12-12T21:09:57.075Z,83.63
2018-12-12T21:12:25.303Z,83.66
2018-12-12T21:14:53.520Z,83.95
2018-12-12T21:17:21.853Z,83.99
2018-12-12T21:19:50.059Z,83.89
2018-12-12T21:22:18.317Z,83.75
2018-12-12T21:24:46.562Z,83.77
2018-12-12T21:27:14.806Z,83.80
2018-12-12T21:29:43.059Z,83.80
2018-12-12T21:32:11.312Z,83.84
2018-12-12T21:34:39.633Z,83.66
2018-12-12T21:37:07.866Z,83.89
2018-12-12T21:39:36.101Z,83.50
2018-12-12T21:42:04.316Z,83.73
2018-12-12T21:44:32.570Z,83.46
2018-12-12T21:47:00.753Z,83.73
2018-12-12T21:49:28.999Z,84.33
2018-12-12T21:51:57.224Z,84.95
2018-12-12T21:54:25.476Z,84.68
2018-12-12T21:56:53.706Z,84.45
2018-12-12T21:59:21.921Z,84.29
2018-12-12T22:01:50.135Z,84.52
2018-12-12T22:04:18.377Z,84.43
2018-12-12T22:06:46.725Z,84.42
2018-12-12T22:09:14.924Z,84.84
2018-12-12T22:11:43.157Z,84.78
2018-12-12T22:14:11.419Z,84.77
2018-12-12T22:16:39.641Z,84.64
2018-12-12T22:19:07.917Z,84.91
2018-12-12T22:21:36.163Z,85.22
2018-12-12T22:24:04.408Z,85.34
2018-12-12T22:26:32.644Z,85.52
2018-12-12T22:29:00.891Z,85.72
2018-12-12T22:31:29.120Z,85.93
2018-12-12T22:33:57.388Z,86.63
2018-12-12T22:36:25.588Z,86.65
2018-12-12T22:38:53.841Z,86.58
2018-12-12T22:41:22.087Z,86.74
2018-12-12T22:43:50.331Z,86.89
2018-12-12T22:46:18.651Z,86.89
2018-12-12T22:48:46.847Z,87.29
2018-12-12T22:51:15.110Z,87.23
2018-12-12T22:53:43.316Z,87.30
2018-12-12T22:56:11.566Z,87.27
2018-12-12T22:58:39.771Z,87.70
2018-12-12T23:01:27.227Z,87.16
2018-12-12T23:03:55.511Z,87.29
2018-12-12T23:06:23.751Z,87.95
2018-12-12T23:09:11.447Z,88.24
2018-12-12T23:11:39.691Z,88.51
2018-12-12T23:14:07.917Z,88.58
2018-12-12T23:16:36.161Z,88.38
2018-12-12T23:19:04.369Z,88.38
2018-12-12T23:21:32.590Z,88.43
2018-12-12T23:24:00.825Z,88.71
2018-12-12T23:26:29.066Z,88.67
2018-12-12T23:28:57.287Z,88.36
2018-12-12T23:31:25.562Z,88.62
2018-12-12T23:33:53.795Z,89.26
2018-12-12T23:36:26.908Z,88.50
2018-12-12T23:38:50.278Z,89.12
2018-12-12T23:41:18.547Z,88.49
2018-12-12T23:43:46.888Z,89.39
2018-12-12T23:46:16.193Z,89.27
2018-12-12T23:48:43.357Z,89.12
2018-12-12T23:51:11.607Z,89.78
2018-12-12T23:53:39.835Z,89.45
2018-12-12T23:56:08.078Z,89.36
2018-12-12T23:58:36.337Z,89.22
